Time;durP1;ratioP1;P1;durP2;ratioP2;P2;SDS_P1;SDS_P2;PMS_P1;PMS_P2;Temp;Humidity;BMP_temperature;BMP_pressure;BME280_temperature;BME280_humidity;BME280_pressure;Samples;Min_cycle;Max_cycle;Signal;HPM_P1;HPM_P2
2022/05/01 00:01:50;;;;;;;1999.90;999.90;;;;;;;;;;5079770;27;20718;-68
2022/05/01 00:04:18;;;;;;;1999.90;999.90;;;;;;;;;;5092389;27;20231;-68
2022/05/01 00:06:46;;;;;;;1999.90;999.90;;;;;;;;;;5066237;28;20232;-69
2022/05/01 00:09:15;;;;;;;1999.90;999.90;;;;;;;;;;5095163;27;20289;-68
2022/05/01 00:11:42;;;;;;;1999.90;999.90;;;;;;;;;;5059135;28;20358;-69
2022/05/01 00:14:11;;;;;;;1999.90;999.90;;;;;;;;;;5077260;27;20300;-67
2022/05/01 00:16:38;;;;;;;1999.90;999.90;;;;;;;;;;5054514;28;20961;-69
2022/05/01 00:19:08;;;;;;;1999.90;999.90;;;;;;;;;;5055824;28;20290;-67
2022/05/01 00:21:36;;;;;;;1999.90;999.90;;;;;;;;;;5088120;27;20239;-67
2022/05/01 00:24:04;;;;;;;1999.90;999.90;;;;;;;;;;5090413;27;20663;-67
2022/05/01 00:26:33;;;;;;;1999.90;999.90;;;;;;;;;;5059728;28;21408;-68
2022/05/01 00:29:01;;;;;;;1999.90;999.90;;;;;;;;;;5046731;28;20223;-67
2022/05/01 00:31:29;;;;;;;1999.90;999.90;;;;;;;;;;5059739;28;20634;-67
2022/05/01 00:36:42;;;;;;;1999.90;999.90;;;;;;;;;;5067527;28;20227;-68
2022/05/01 00:39:09;;;;;;;1999.90;999.90;;;;;;;;;;5056656;28;20999;-68
2022/05/01 00:41:39;;;;;;;1999.90;999.90;;;;;;;;;;5096965;27;20357;-68
2022/05/01 00:44:08;;;;;;;1999.90;999.90;;;;;;;;;;5062587;28;20227;-67
2022/05/01 00:46:37;;;;;;;1999.90;999.90;;;;;;;;;;5089705;27;20409;-68
2022/05/01 00:49:08;;;;;;;1999.90;999.90;;;;;;;;;;5059168;28;21117;-68
2022/05/01 00:51:36;;;;;;;1999.90;999.90;;;;;;;;;;5068995;28;20289;-68
2022/05/01 00:54:07;;;;;;;1999.90;999.90;;;;;;;;;;5058688;28;20725;-67
2022/05/01 00:56:36;;;;;;;1999.90;999.90;;;;;;;;;;5057082;28;20603;-68
2022/05/01 00:59:05;;;;;;;1999.90;999.90;;;;;;;;;;5060152;28;20306;-68
2022/05/01 01:01:33;;;;;;;1999.90;999.90;;;;;;;;;;5060440;28;20236;-68
2022/05/01 01:04:01;;;;;;;1999.90;999.90;;;;;;;;;;5064467;28;20232;-67
2022/05/01 01:06:29;;;;;;;1999.90;999.90;;;;;;;;;;5043187;28;20258;-67
2022/05/01 01:08:56;;;;;;;1999.90;999.90;;;;;;;;;;5063080;28;20724;-67
2022/05/01 01:11:24;;;;;;;1999.90;999.90;;;;;;;;;;5060467;28;23171;-67
2022/05/01 01:13:51;;;;;;;1999.90;999.90;;;;;;;;;;5093550;27;21016;-68
2022/05/01 01:16:20;;;;;;;1999.90;999.90;;;;;;;;;;5057472;28;20231;-67
2022/05/01 01:18:48;;;;;;;1999.90;999.90;;;;;;;;;;5091563;27;20231;-67
2022/05/01 01:21:18;;;;;;;1999.90;999.90;;;;;;;;;;5060869;28;20227;-67
2022/05/01 01:23:46;;;;;;;1999.90;999.90;;;;;;;;;;5092466;27;20220;-67
2022/05/01 01:26:14;;;;;;;1999.90;999.90;;;;;;;;;;5041771;28;20227;-68
2022/05/01 01:28:43;;;;;;;1999.90;999.90;;;;;;;;;;5091027;27;20323;-67
2022/05/01 01:33:59;;;;;;;1999.90;999.90;;;;;;;;;;5061446;28;20323;-67
2022/05/01 01:36:29;;;;;;;1999.90;999.90;;;;;;;;;;5089254;27;20222;-67
2022/05/01 01:38:56;;;;;;;1999.90;999.90;;;;;;;;;;5058957;28;20328;-68
2022/05/01 01:41:26;;;;;;;1999.90;999.90;;;;;;;;;;5063911;28;20324;-68
2022/05/01 01:43:53;;;;;;;1999.90;999.90;;;;;;;;;;5057182;28;20643;-67
2022/05/01 01:46:21;;;;;;;1999.90;999.90;;;;;;;;;;5058690;28;20232;-67
2022/05/01 01:48:50;;;;;;;1999.90;999.90;;;;;;;;;;5062605;28;20239;-67
2022/05/01 01:51:18;;;;;;;1999.90;999.90;;;;;;;;;;5056241;28;20318;-67
2022/05/01 01:53:48;;;;;;;1999.90;999.90;;;;;;;;;;5044466;28;20222;-68
2022/05/01 01:56:16;;;;;;;1999.90;999.90;;;;;;;;;;5063651;28;20287;-68
2022/05/01 01:58:43;;;;;;;1999.90;999.90;;;;;;;;;;5061528;28;20234;-69
2022/05/01 02:01:12;;;;;;;1999.90;999.90;;;;;;;;;;5066459;28;20318;-72
2022/05/01 02:03:40;;;;;;;1999.90;999.90;;;;;;;;;;5064699;28;20228;-68
2022/05/01 02:06:09;;;;;;;1999.90;999.90;;;;;;;;;;5055045;28;20233;-69
2022/05/01 02:08:36;;;;;;;1999.90;999.90;;;;;;;;;;5062001;28;20914;-68
2022/05/01 02:11:06;;;;;;;1999.90;999.90;;;;;;;;;;5093025;27;20242;-68
2022/05/01 02:13:35;;;;;;;1999.90;999.90;;;;;;;;;;5059703;28;20303;-68
2022/05/01 02:16:03;;;;;;;1999.90;999.90;;;;;;;;;;5088724;27;20258;-67
2022/05/01 02:18:31;;;;;;;1999.90;999.90;;;;;;;;;;5043074;28;20266;-67
2022/05/01 02:23:44;;;;;;;1999.90;999.90;;;;;;;;;;5065028;28;20325;-67
2022/05/01 02:26:14;;;;;;;1999.90;999.90;;;;;;;;;;5059792;28;20881;-67
2022/05/01 02:28:41;;;;;;;1999.90;999.90;;;;;;;;;;5088230;27;20236;-68
2022/05/01 02:31:09;;;;;;;1999.90;999.90;;;;;;;;;;5089803;27;20235;-67
2022/05/01 02:33:37;;;;;;;1999.90;999.90;;;;;;;;;;5095319;27;21077;-67
2022/05/01 02:36:07;;;;;;;1999.90;999.90;;;;;;;;;;5060020;28;20266;-67
2022/05/01 02:38:36;;;;;;;1999.90;999.90;;;;;;;;;;5058573;28;20315;-67
2022/05/01 02:41:03;;;;;;;1999.90;999.90;;;;;;;;;;5062869;28;20227;-67
2022/05/01 02:43:32;;;;;;;1999.90;999.90;;;;;;;;;;5076533;27;20235;-67
2022/05/01 02:46:00;;;;;;;1999.90;999.90;;;;;;;;;;5056359;28;20238;-68
2022/05/01 02:48:28;;;;;;;1999.90;999.90;;;;;;;;;;5060518;28;21815;-68
2022/05/01 02:50:56;;;;;;;1999.90;999.90;;;;;;;;;;5092450;27;20694;-68
2022/05/01 02:53:24;;;;;;;1999.90;999.90;;;;;;;;;;5075882;27;21754;-67
2022/05/01 02:55:51;;;;;;;1999.90;999.90;;;;;;;;;;5055881;28;20228;-68
2022/05/01 02:58:19;;;;;;;1999.90;999.90;;;;;;;;;;5056111;28;20313;-68
2022/05/01 03:00:48;;;;;;;1999.90;999.90;;;;;;;;;;5057161;28;20227;-68
2022/05/01 03:03:15;;;;;;;1999.90;999.90;;;;;;;;;;5093109;27;20224;-70
2022/05/01 03:05:43;;;;;;;1999.90;999.90;;;;;;;;;;5062288;28;20260;-67
2022/05/01 03:08:12;;;;;;;1999.90;999.90;;;;;;;;;;5059024;28;20737;-67
2022/05/01 03:10:40;;;;;;;1999.90;999.90;;;;;;;;;;5061923;28;20276;-68
2022/05/01 03:13:08;;;;;;;1999.90;999.90;;;;;;;;;;5058487;28;20793;-67
2022/05/01 03:15:36;;;;;;;1999.90;999.90;;;;;;;;;;5091840;27;20232;-69
2022/05/01 03:23:36;;;;;;;1999.90;999.90;;;;;;;;;;5058768;28;20274;-67
2022/05/01 03:26:03;;;;;;;1999.90;999.90;;;;;;;;;;5096803;27;20235;-67
2022/05/01 03:28:31;;;;;;;1999.90;999.90;;;;;;;;;;5092344;27;20242;-68
2022/05/01 03:30:58;;;;;;;1999.90;999.90;;;;;;;;;;5054599;28;20265;-68
2022/05/01 03:33:27;;;;;;;1999.90;999.90;;;;;;;;;;5092246;27;20317;-69
2022/05/01 03:35:55;;;;;;;1999.90;999.90;;;;;;;;;;5058374;28;20310;-67
2022/05/01 03:38:22;;;;;;;1999.90;999.90;;;;;;;;;;5061138;28;20305;-68
2022/05/01 03:40:50;;;;;;;1999.90;999.90;;;;;;;;;;5060627;28;20227;-68
2022/05/01 03:43:24;;;;;;;1999.90;999.90;;;;;;;;;;5057922;28;20220;-68
2022/05/01 03:45:51;;;;;;;1999.90;999.90;;;;;;;;;;5046230;28;20219;-68
2022/05/01 03:48:19;;;;;;;1999.90;999.90;;;;;;;;;;5075222;27;20235;-68
2022/05/01 03:50:51;;;;;;;1999.90;999.90;;;;;;;;;;5061298;28;20801;-67
2022/05/01 03:53:18;;;;;;;1999.90;999.90;;;;;;;;;;5089953;27;20341;-67
2022/05/01 03:55:46;;;;;;;1999.90;999.90;;;;;;;;;;5063833;28;21225;-68
2022/05/01 03:58:14;;;;;;;1999.90;999.90;;;;;;;;;;5060800;28;20234;-67
2022/05/01 04:00:44;;;;;;;1999.90;999.90;;;;;;;;;;5099183;27;20231;-67
2022/05/01 04:03:12;;;;;;;1999.90;999.90;;;;;;;;;;5066524;28;20223;-66
2022/05/01 04:05:40;;;;;;;1999.90;999.90;;;;;;;;;;5065412;28;20354;-67
2022/05/01 04:08:09;;;;;;;1999.90;999.90;;;;;;;;;;5064815;28;20232;-68
2022/05/01 04:10:37;;;;;;;1999.90;999.90;;;;;;;;;;5061562;28;20305;-68
2022/05/01 04:13:05;;;;;;;1999.90;999.90;;;;;;;;;;5064509;28;20733;-68
2022/05/01 04:15:33;;;;;;;1999.90;999.90;;;;;;;;;;5098437;27;21113;-68
2022/05/01 04:18:02;;;;;;;1999.90;999.90;;;;;;;;;;5063126;28;20289;-68
2022/05/01 04:20:30;;;;;;;1999.90;999.90;;;;;;;;;;5062029;28;20233;-68
2022/05/01 04:22:58;;;;;;;1999.90;999.90;;;;;;;;;;5062356;27;20706;-68
2022/05/01 04:25:29;;;;;;;1999.90;999.90;;;;;;;;;;5082550;27;20301;-68
2022/05/01 04:27:58;;;;;;;1999.90;999.90;;;;;;;;;;5094577;27;21005;-68
2022/05/01 04:30:26;;;;;;;1999.90;999.90;;;;;;;;;;5098979;27;20696;-67
2022/05/01 04:32:55;;;;;;;1999.90;999.90;;;;;;;;;;5104032;27;20740;-67
2022/05/01 04:35:25;;;;;;;1999.90;999.90;;;;;;;;;;5096958;27;20235;-68
2022/05/01 04:37:53;;;;;;;1999.90;999.90;;;;;;;;;;5096592;27;20311;-67
2022/05/01 04:40:20;;;;;;;1999.90;999.90;;;;;;;;;;5064186;28;20309;-67
2022/05/01 04:42:49;;;;;;;1999.90;999.90;;;;;;;;;;5103715;27;20766;-68
2022/05/01 04:45:17;;;;;;;1999.90;999.90;;;;;;;;;;5068507;28;20232;-68
2022/05/01 04:47:46;;;;;;;1999.90;999.90;;;;;;;;;;5066157;28;20237;-69
2022/05/01 04:50:14;;;;;;;1999.90;999.90;;;;;;;;;;5067695;28;20227;-69
2022/05/01 04:52:41;;;;;;;1999.90;999.90;;;;;;;;;;5062909;28;20243;-68
2022/05/01 04:55:09;;;;;;;1999.90;999.90;;;;;;;;;;5064380;28;20359;-67
2022/05/01 04:57:38;;;;;;;1999.90;999.90;;;;;;;;;;5063113;28;20232;-68
2022/05/01 05:00:08;;;;;;;1999.90;999.90;;;;;;;;;;5061837;28;20231;-68
2022/05/01 05:02:37;;;;;;;1999.90;999.90;;;;;;;;;;5096903;27;20224;-68
2022/05/01 05:05:06;;;;;;;1999.90;999.90;;;;;;;;;;5062149;28;20231;-68
2022/05/01 05:07:33;;;;;;;1999.90;999.90;;;;;;;;;;5067268;28;20334;-68
2022/05/01 05:10:01;;;;;;;1999.90;999.90;;;;;;;;;;5060904;28;20281;-69
2022/05/01 05:12:28;;;;;;;1999.90;999.90;;;;;;;;;;5058919;28;20702;-68
2022/05/01 05:14:59;;;;;;;1999.90;999.90;;;;;;;;;;5062447;28;20221;-66
2022/05/01 05:17:29;;;;;;;1999.90;999.90;;;;;;;;;;5096206;27;20222;-66
2022/05/01 05:19:57;;;;;;;1999.90;999.90;;;;;;;;;;5043094;28;21079;-67
2022/05/01 05:22:24;;;;;;;1999.90;999.90;;;;;;;;;;5059400;28;20247;-68
2022/05/01 05:24:52;;;;;;;1999.90;999.90;;;;;;;;;;5067605;28;20231;-67
2022/05/01 05:27:23;;;;;;;1999.90;999.90;;;;;;;;;;5057794;28;20287;-68
2022/05/01 05:29:50;;;;;;;1999.90;999.90;;;;;;;;;;5061514;28;20659;-68
2022/05/01 05:32:18;;;;;;;1999.90;999.90;;;;;;;;;;5076523;27;20231;-68
2022/05/01 05:34:47;;;;;;;1999.90;999.90;;;;;;;;;;5096423;27;20239;-68
2022/05/01 05:37:15;;;;;;;1999.90;999.90;;;;;;;;;;5062318;28;20352;-68
2022/05/01 05:39:42;;;;;;;1999.90;999.90;;;;;;;;;;5057646;28;20301;-67
2022/05/01 05:42:11;;;;;;;1999.90;999.90;;;;;;;;;;5063817;28;20223;-69
2022/05/01 05:44:39;;;;;;;1999.90;999.90;;;;;;;;;;5060776;28;20229;-68
2022/05/01 05:47:06;;;;;;;1999.90;999.90;;;;;;;;;;5090576;27;20255;-68
2022/05/01 05:49:34;;;;;;;1999.90;999.90;;;;;;;;;;5063437;28;20778;-68
2022/05/01 05:52:03;;;;;;;1999.90;999.90;;;;;;;;;;5092900;27;20317;-69
2022/05/01 05:54:32;;;;;;;1999.90;999.90;;;;;;;;;;5096807;27;20325;-68
2022/05/01 05:57:00;;;;;;;1999.90;999.90;;;;;;;;;;5078304;27;20227;-68
2022/05/01 05:59:27;;;;;;;1999.90;999.90;;;;;;;;;;5063380;28;20266;-67
2022/05/01 06:01:55;;;;;;;1999.90;999.90;;;;;;;;;;5061413;28;20375;-67
2022/05/01 06:04:23;;;;;;;1999.90;999.90;;;;;;;;;;5057686;28;20228;-68
2022/05/01 06:06:50;;;;;;;1999.90;999.90;;;;;;;;;;5062252;28;20223;-68
2022/05/01 06:09:19;;;;;;;1999.90;999.90;;;;;;;;;;5059612;28;20230;-67
2022/05/01 06:11:47;;;;;;;1999.90;999.90;;;;;;;;;;5093231;27;20278;-68
2022/05/01 06:14:14;;;;;;;1999.90;999.90;;;;;;;;;;5058201;28;20296;-68
2022/05/01 06:16:42;;;;;;;1999.90;999.90;;;;;;;;;;5060143;28;20232;-68
2022/05/01 06:19:10;;;;;;;1999.90;999.90;;;;;;;;;;5058730;28;20712;-67
2022/05/01 06:21:37;;;;;;;1999.90;999.90;;;;;;;;;;5063270;28;20306;-68
2022/05/01 06:24:07;;;;;;;1999.90;999.90;;;;;;;;;;5060997;28;20228;-67
2022/05/01 06:26:36;;;;;;;1999.90;999.90;;;;;;;;;;5058130;28;20240;-68
2022/05/01 06:29:04;;;;;;;1999.90;999.90;;;;;;;;;;5061514;28;20243;-72
2022/05/01 06:31:31;;;;;;;1999.90;999.90;;;;;;;;;;5061762;28;20252;-72
2022/05/01 06:33:59;;;;;;;1999.90;999.90;;;;;;;;;;5061249;28;20310;-72
2022/05/01 06:36:28;;;;;;;1999.90;999.90;;;;;;;;;;5094367;27;20239;-70
2022/05/01 06:38:56;;;;;;;1999.90;999.90;;;;;;;;;;5059664;28;20239;-71
2022/05/01 06:41:24;;;;;;;1999.90;999.90;;;;;;;;;;5065361;28;20402;-74
2022/05/01 06:43:53;;;;;;;1999.90;999.90;;;;;;;;;;5064527;28;21598;-75
2022/05/01 06:46:20;;;;;;;1999.90;999.90;;;;;;;;;;5061375;28;20232;-76
2022/05/01 06:48:48;;;;;;;1999.90;999.90;;;;;;;;;;5059688;28;21216;-77
2022/05/01 06:51:16;;;;;;;1999.90;999.90;;;;;;;;;;5059982;28;20228;-70
2022/05/01 06:53:43;;;;;;;1999.90;999.90;;;;;;;;;;5064721;28;20246;-71
2022/05/01 06:56:11;;;;;;;1999.90;999.90;;;;;;;;;;5089760;27;20234;-70
2022/05/01 06:58:38;;;;;;;1999.90;999.90;;;;;;;;;;5059262;28;20239;-70
2022/05/01 07:01:08;;;;;;;1999.90;999.90;;;;;;;;;;5058821;28;20224;-72
2022/05/01 07:03:35;;;;;;;1999.90;999.90;;;;;;;;;;5072992;27;20342;-71
2022/05/01 07:06:03;;;;;;;1999.90;999.90;;;;;;;;;;5060889;28;20306;-71
2022/05/01 07:08:31;;;;;;;1999.90;999.90;;;;;;;;;;5063070;28;20239;-70
2022/05/01 07:10:58;;;;;;;1999.90;999.90;;;;;;;;;;5063292;28;20221;-70
2022/05/01 07:13:26;;;;;;;1999.90;999.90;;;;;;;;;;5066683;28;20226;-72
2022/05/01 07:15:54;;;;;;;1999.90;999.90;;;;;;;;;;5061401;28;21321;-72
2022/05/01 07:18:24;;;;;;;1999.90;999.90;;;;;;;;;;5052584;28;20315;-71
2022/05/01 07:20:51;;;;;;;1999.90;999.90;;;;;;;;;;5090725;27;20228;-71
2022/05/01 07:23:21;;;;;;;1999.90;999.90;;;;;;;;;;5057618;28;20794;-70
2022/05/01 07:25:49;;;;;;;1999.90;999.90;;;;;;;;;;5059431;28;20232;-70
2022/05/01 07:28:17;;;;;;;1999.90;999.90;;;;;;;;;;5094180;27;20832;-70
2022/05/01 07:30:45;;;;;;;1999.90;999.90;;;;;;;;;;5058046;28;20228;-71
2022/05/01 07:33:12;;;;;;;1999.90;999.90;;;;;;;;;;5057058;28;20722;-69
2022/05/01 07:35:43;;;;;;;1999.90;999.90;;;;;;;;;;5061551;28;20332;-70
2022/05/01 07:38:10;;;;;;;1999.90;999.90;;;;;;;;;;5057324;28;20231;-70
2022/05/01 07:40:39;;;;;;;1999.90;999.90;;;;;;;;;;5093485;27;20256;-71
2022/05/01 07:43:06;;;;;;;1999.90;999.90;;;;;;;;;;5059754;28;20330;-70
2022/05/01 07:45:34;;;;;;;1999.90;999.90;;;;;;;;;;5058392;28;20677;-73
2022/05/01 07:48:10;;;;;;;1999.90;999.90;;;;;;;;;;5057240;28;20347;-70
2022/05/01 07:50:37;;;;;;;1999.90;999.90;;;;;;;;;;5090008;27;20286;-69
2022/05/01 07:53:06;;;;;;;1999.90;999.90;;;;;;;;;;5090031;27;20237;-70
2022/05/01 07:55:34;;;;;;;1999.90;999.90;;;;;;;;;;5056530;28;21230;-70
2022/05/01 07:58:01;;;;;;;1999.90;999.90;;;;;;;;;;5055294;28;20240;-70
2022/05/01 08:00:29;;;;;;;1999.90;999.90;;;;;;;;;;5061618;28;20738;-70
2022/05/01 08:05:38;;;;;;;1999.90;999.90;;;;;;;;;;5036721;28;20322;-71
2022/05/01 08:08:08;;;;;;;1999.90;999.90;;;;;;;;;;5043473;28;20235;-72
2022/05/01 08:10:35;;;;;;;1999.90;999.90;;;;;;;;;;5061278;28;20310;-71
2022/05/01 08:13:03;;;;;;;1999.90;999.90;;;;;;;;;;5091406;27;22373;-70
2022/05/01 08:15:31;;;;;;;1999.90;999.90;;;;;;;;;;5056799;28;20249;-69
2022/05/01 08:21:05;;;;;;;1999.90;999.90;;;;;;;;;;5092257;27;20235;-71
2022/05/01 08:23:34;;;;;;;1999.90;999.90;;;;;;;;;;5059513;28;21471;-71
2022/05/01 08:26:03;;;;;;;1999.90;999.90;;;;;;;;;;5061967;28;20238;-71
2022/05/01 08:28:35;;;;;;;1999.90;999.90;;;;;;;;;;5054424;28;20241;-71
2022/05/01 08:31:03;;;;;;;1999.90;999.90;;;;;;;;;;5090522;27;20361;-72
2022/05/01 08:33:31;;;;;;;1999.90;999.90;;;;;;;;;;5091457;27;20228;-72
2022/05/01 08:36:02;;;;;;;1999.90;999.90;;;;;;;;;;5078133;27;20236;-72
2022/05/01 08:38:30;;;;;;;1999.90;999.90;;;;;;;;;;5063898;28;20232;-70
2022/05/01 08:40:59;;;;;;;1999.90;999.90;;;;;;;;;;5088290;27;20442;-74
2022/05/01 08:43:27;;;;;;;1999.90;999.90;;;;;;;;;;5062964;28;20234;-70
2022/05/01 08:46:04;;;;;;;1999.90;999.90;;;;;;;;;;5091773;27;20227;-70
2022/05/01 08:48:37;;;;;;;1999.90;999.90;;;;;;;;;;5065210;28;20227;-70
2022/05/01 08:51:05;;;;;;;1999.90;999.90;;;;;;;;;;5092962;27;20445;-71
2022/05/01 08:53:33;;;;;;;1999.90;999.90;;;;;;;;;;5061433;28;20224;-71
2022/05/01 08:56:02;;;;;;;1999.90;999.90;;;;;;;;;;5058773;28;20263;-71
2022/05/01 08:58:31;;;;;;;1999.90;999.90;;;;;;;;;;5059799;28;20358;-71
2022/05/01 09:00:59;;;;;;;1999.90;999.90;;;;;;;;;;5093906;27;20220;-71
2022/05/01 09:03:27;;;;;;;1999.90;999.90;;;;;;;;;;5062369;28;20238;-69
2022/05/01 09:05:55;;;;;;;1999.90;999.90;;;;;;;;;;5098235;27;20227;-70
2022/05/01 09:08:23;;;;;;;1999.90;999.90;;;;;;;;;;5063218;28;20802;-70
2022/05/01 09:10:51;;;;;;;1999.90;999.90;;;;;;;;;;5068011;28;20223;-71
2022/05/01 09:13:23;;;;;;;1999.90;999.90;;;;;;;;;;5064731;28;20248;-70
2022/05/01 09:15:51;;;;;;;1999.90;999.90;;;;;;;;;;5060092;28;20240;-71
2022/05/01 09:18:19;;;;;;;1999.90;999.90;;;;;;;;;;5061216;28;20318;-70
2022/05/01 09:21:01;;;;;;;1999.90;999.90;;;;;;;;;;5065556;28;20306;-70
2022/05/01 09:23:36;;;;;;;1999.90;999.90;;;;;;;;;;5095766;27;20227;-69
2022/05/01 09:26:03;;;;;;;1999.90;999.90;;;;;;;;;;5059209;28;20233;-70
2022/05/01 09:28:38;;;;;;;1999.90;999.90;;;;;;;;;;5059637;28;21053;-72
2022/05/01 09:31:05;;;;;;;1999.90;999.90;;;;;;;;;;5060456;28;20269;-70
2022/05/01 09:33:33;;;;;;;1999.90;999.90;;;;;;;;;;5093717;27;20289;-70
2022/05/01 09:36:00;;;;;;;1999.90;999.90;;;;;;;;;;5065387;28;20240;-73
2022/05/01 09:38:28;;;;;;;1999.90;999.90;;;;;;;;;;5093937;27;20235;-71
2022/05/01 09:40:58;;;;;;;1999.90;999.90;;;;;;;;;;5057129;28;20992;-71
2022/05/01 09:43:34;;;;;;;1999.90;999.90;;;;;;;;;;5053223;28;20314;-72
2022/05/01 09:46:13;;;;;;;1999.90;999.90;;;;;;;;;;5057144;28;20261;-71
2022/05/01 09:48:42;;;;;;;1999.90;999.90;;;;;;;;;;5050025;28;21011;-72
2022/05/01 09:51:16;;;;;;;1999.90;999.90;;;;;;;;;;5050908;28;20331;-71
2022/05/01 09:53:45;;;;;;;1999.90;999.90;;;;;;;;;;5056375;28;20233;-72
2022/05/01 09:56:12;;;;;;;1999.90;999.90;;;;;;;;;;5089829;27;20235;-71
2022/05/01 09:58:43;;;;;;;1999.90;999.90;;;;;;;;;;5085925;27;20998;-72
2022/05/01 10:01:12;;;;;;;1999.90;999.90;;;;;;;;;;5054140;28;20231;-70
2022/05/01 10:03:42;;;;;;;1999.90;999.90;;;;;;;;;;5094670;27;20228;-71
2022/05/01 10:06:10;;;;;;;1999.90;999.90;;;;;;;;;;5067935;28;20224;-71
2022/05/01 10:08:41;;;;;;;1999.90;999.90;;;;;;;;;;5056472;28;20909;-72
2022/05/01 10:11:08;;;;;;;1999.90;999.90;;;;;;;;;;5055881;28;21168;-70
2022/05/01 10:13:36;;;;;;;1999.90;999.90;;;;;;;;;;5095044;27;20254;-72
2022/05/01 10:16:07;;;;;;;1999.90;999.90;;;;;;;;;;5064076;28;20236;-71
2022/05/01 10:18:36;;;;;;;1999.90;999.90;;;;;;;;;;5090877;27;20465;-71
2022/05/01 10:21:06;;;;;;;1999.90;999.90;;;;;;;;;;5092599;27;21394;-72
2022/05/01 10:23:35;;;;;;;1999.90;999.90;;;;;;;;;;5048983;28;20285;-70
2022/05/01 10:26:07;;;;;;;1999.90;999.90;;;;;;;;;;5057659;28;21176;-70
2022/05/01 10:29:12;;;;;;;1999.90;999.90;;;;;;;;;;5057658;28;20236;-70
2022/05/01 10:34:54;;;;;;;1999.90;999.90;;;;;;;;;;5055604;28;20219;-71
2022/05/01 10:37:39;;;;;;;1999.90;999.90;;;;;;;;;;5060135;28;20240;-69
2022/05/01 10:40:08;;;;;;;1999.90;999.90;;;;;;;;;;5047943;27;20232;-70
2022/05/01 10:42:38;;;;;;;1999.90;999.90;;;;;;;;;;5075077;27;20228;-71
2022/05/01 10:45:21;;;;;;;1999.90;999.90;;;;;;;;;;5093582;27;20218;-70
2022/05/01 10:47:49;;;;;;;1999.90;999.90;;;;;;;;;;5061813;28;20346;-71
2022/05/01 10:50:20;;;;;;;1999.90;999.90;;;;;;;;;;5064538;28;20309;-72
2022/05/01 10:53:03;;;;;;;1999.90;999.90;;;;;;;;;;5073099;28;20228;-70
2022/05/01 10:55:43;;;;;;;1999.90;999.90;;;;;;;;;;5058188;28;20730;-71
2022/05/01 10:58:18;;;;;;;1999.90;999.90;;;;;;;;;;5064153;28;20234;-70
2022/05/01 11:00:47;;;;;;;1999.90;999.90;;;;;;;;;;5063881;28;20306;-68
2022/05/01 11:03:25;;;;;;;1999.90;999.90;;;;;;;;;;5060102;28;20224;-69
2022/05/01 11:05:55;;;;;;;1999.90;999.90;;;;;;;;;;5091977;27;20235;-70
2022/05/01 11:08:25;;;;;;;1999.90;999.90;;;;;;;;;;5057911;28;20232;-70
2022/05/01 11:10:56;;;;;;;1999.90;999.90;;;;;;;;;;5092828;27;20224;-70
2022/05/01 11:13:32;;;;;;;1999.90;999.90;;;;;;;;;;5091328;27;20754;-71
2022/05/01 11:16:00;;;;;;;1999.90;999.90;;;;;;;;;;5056682;28;20285;-70
2022/05/01 11:18:29;;;;;;;1999.90;999.90;;;;;;;;;;5041233;28;20232;-69
2022/05/01 11:21:16;;;;;;;1999.90;999.90;;;;;;;;;;5056315;28;20272;-71
2022/05/01 11:23:44;;;;;;;1999.90;999.90;;;;;;;;;;5057950;28;20255;-70
2022/05/01 11:26:17;;;;;;;1999.90;999.90;;;;;;;;;;5058340;28;20236;-70
2022/05/01 11:28:45;;;;;;;1999.90;999.90;;;;;;;;;;5085365;27;20235;-71
2022/05/01 11:31:34;;;;;;;1999.90;999.90;;;;;;;;;;5056464;28;20227;-71
2022/05/01 11:34:22;;;;;;;1999.90;999.90;;;;;;;;;;5053230;28;20310;-71
2022/05/01 11:36:53;;;;;;;1999.90;999.90;;;;;;;;;;5062235;28;20244;-71
2022/05/01 11:39:21;;;;;;;1999.90;999.90;;;;;;;;;;5062266;28;20725;-71
2022/05/01 11:42:00;;;;;;;1999.90;999.90;;;;;;;;;;5062830;28;20728;-71
2022/05/01 11:44:29;;;;;;;1999.90;999.90;;;;;;;;;;5063933;28;20257;-70
2022/05/01 11:46:58;;;;;;;1999.90;999.90;;;;;;;;;;5095559;27;20385;-69
2022/05/01 11:49:28;;;;;;;1999.90;999.90;;;;;;;;;;5064452;28;20230;-69
2022/05/01 11:51:58;;;;;;;1999.90;999.90;;;;;;;;;;5063506;28;20231;-70
2022/05/01 11:54:28;;;;;;;1999.90;999.90;;;;;;;;;;5061809;28;21681;-70
2022/05/01 12:02:25;;;;;;;1999.90;999.90;;;;;;;;;;5056561;28;20825;-71
2022/05/01 12:04:58;;;;;;;1999.90;999.90;;;;;;;;;;5091927;27;20228;-70
2022/05/01 12:07:25;;;;;;;1999.90;999.90;;;;;;;;;;5061267;28;20234;-71
2022/05/01 12:09:53;;;;;;;1999.90;999.90;;;;;;;;;;5059282;28;20777;-71
2022/05/01 12:12:21;;;;;;;1999.90;999.90;;;;;;;;;;5062477;28;20238;-70
2022/05/01 12:14:50;;;;;;;1999.90;999.90;;;;;;;;;;5043978;28;20227;-70
2022/05/01 12:17:18;;;;;;;1999.90;999.90;;;;;;;;;;5092222;27;20293;-70
2022/05/01 12:19:54;;;;;;;1999.90;999.90;;;;;;;;;;5077418;27;20231;-70
2022/05/01 12:22:23;;;;;;;1999.90;999.90;;;;;;;;;;5100594;27;20714;-70
2022/05/01 12:24:54;;;;;;;1999.90;999.90;;;;;;;;;;5066713;28;20301;-69
2022/05/01 12:27:25;;;;;;;1999.90;999.90;;;;;;;;;;5066098;28;20220;-72
2022/05/01 12:29:55;;;;;;;1999.90;999.90;;;;;;;;;;5067221;28;20227;-70
2022/05/01 12:32:24;;;;;;;1999.90;999.90;;;;;;;;;;5098713;27;20231;-71
2022/05/01 12:34:56;;;;;;;1999.90;999.90;;;;;;;;;;5064124;28;20231;-70
2022/05/01 12:37:27;;;;;;;1999.90;999.90;;;;;;;;;;5066967;28;20273;-71
2022/05/01 12:39:59;;;;;;;1999.90;999.90;;;;;;;;;;5061371;28;20237;-70
2022/05/01 12:45:16;;;;;;;1999.90;999.90;;;;;;;;;;5063740;28;21563;-70
2022/05/01 12:47:45;;;;;;;1999.90;999.90;;;;;;;;;;5099460;27;21187;-71
2022/05/01 12:50:24;;;;;;;1999.90;999.90;;;;;;;;;;5047690;28;20228;-70
2022/05/01 12:52:54;;;;;;;1999.90;999.90;;;;;;;;;;5065190;28;20241;-72
2022/05/01 12:55:22;;;;;;;1999.90;999.90;;;;;;;;;;5096724;27;20236;-69
2022/05/01 12:57:51;;;;;;;1999.90;999.90;;;;;;;;;;5067070;28;20283;-70
2022/05/01 13:00:37;;;;;;;1999.90;999.90;;;;;;;;;;5064460;28;20315;-70
2022/05/01 13:03:16;;;;;;;1999.90;999.90;;;;;;;;;;5063765;28;20779;-70
2022/05/01 13:05:56;;;;;;;1999.90;999.90;;;;;;;;;;5067720;28;20230;-70
2022/05/01 13:08:24;;;;;;;1999.90;999.90;;;;;;;;;;5062057;28;20306;-71
2022/05/01 13:11:10;;;;;;;1999.90;999.90;;;;;;;;;;5062924;28;20406;-70
2022/05/01 13:13:55;;;;;;;1999.90;999.90;;;;;;;;;;5060654;28;20226;-70
2022/05/01 13:16:23;;;;;;;1999.90;999.90;;;;;;;;;;5094735;27;20404;-70
2022/05/01 13:18:54;;;;;;;1999.90;999.90;;;;;;;;;;5092486;27;21230;-71
2022/05/01 13:21:23;;;;;;;1999.90;999.90;;;;;;;;;;5063905;28;20253;-69
2022/05/01 13:23:52;;;;;;;1999.90;999.90;;;;;;;;;;5067313;28;20732;-69
2022/05/01 13:26:19;;;;;;;1999.90;999.90;;;;;;;;;;5064123;28;20314;-70
2022/05/01 13:28:48;;;;;;;1999.90;999.90;;;;;;;;;;5097826;27;20236;-70
2022/05/01 13:31:16;;;;;;;1999.90;999.90;;;;;;;;;;5093685;27;20231;-70
2022/05/01 13:33:44;;;;;;;1999.90;999.90;;;;;;;;;;5064209;28;20227;-70
2022/05/01 13:36:14;;;;;;;1999.90;999.90;;;;;;;;;;5063396;28;20315;-70
2022/05/01 13:38:42;;;;;;;1999.90;999.90;;;;;;;;;;5063178;28;21150;-71
2022/05/01 13:46:41;;;;;;;1999.90;999.90;;;;;;;;;;5064867;28;20815;-69
2022/05/01 13:49:08;;;;;;;1999.90;999.90;;;;;;;;;;5062731;28;20253;-69
2022/05/01 13:51:37;;;;;;;1999.90;999.90;;;;;;;;;;5078460;27;20282;-71
2022/05/01 13:54:05;;;;;;;1999.90;999.90;;;;;;;;;;5060983;28;20232;-69
2022/05/01 13:56:33;;;;;;;1999.90;999.90;;;;;;;;;;5062089;28;20315;-70
2022/05/01 13:59:01;;;;;;;1999.90;999.90;;;;;;;;;;5094289;27;20293;-70
2022/05/01 14:01:28;;;;;;;1999.90;999.90;;;;;;;;;;5042491;28;20229;-69
2022/05/01 14:03:58;;;;;;;1999.90;999.90;;;;;;;;;;5060125;28;20399;-70
2022/05/01 14:06:26;;;;;;;1999.90;999.90;;;;;;;;;;5092756;27;20228;-70
2022/05/01 14:08:55;;;;;;;1999.90;999.90;;;;;;;;;;5063282;28;20230;-71
2022/05/01 14:11:23;;;;;;;1999.90;999.90;;;;;;;;;;5058504;28;20909;-72
2022/05/01 14:13:51;;;;;;;1999.90;999.90;;;;;;;;;;5073379;27;21117;-70
2022/05/01 14:16:19;;;;;;;1999.90;999.90;;;;;;;;;;5062879;27;21339;-70
2022/05/01 14:18:48;;;;;;;1999.90;999.90;;;;;;;;;;5062600;28;20697;-70
2022/05/01 14:21:16;;;;;;;1999.90;999.90;;;;;;;;;;5092465;27;20236;-70
2022/05/01 14:23:45;;;;;;;1999.90;999.90;;;;;;;;;;5059290;28;20301;-69
2022/05/01 14:26:15;;;;;;;1999.90;999.90;;;;;;;;;;5061452;28;20227;-69
2022/05/01 14:28:43;;;;;;;1999.90;999.90;;;;;;;;;;5062081;28;20409;-69
2022/05/01 14:31:17;;;;;;;1999.90;999.90;;;;;;;;;;5059334;28;20395;-68